createdAt,value
2018-03-22T17:40:26.566Z,2.27
2018-03-22T17:41:25.523Z,2.16
2018-03-22T17:43:23.812Z,1.91
2018-03-22T17:44:23.941Z,1.86
2018-03-22T17:46:31.386Z,1.91
2018-03-22T17:47:31.461Z,1.93
2018-03-22T17:48:31.404Z,1.87
2018-03-22T17:49:31.501Z,1.95
2018-03-22T17:50:31.040Z,1.80
2018-03-22T17:51:31.173Z,1.81
2018-03-22T17:52:31.040Z,1.81
2018-03-22T17:53:31.044Z,1.79
2018-03-22T17:54:30.977Z,1.73
2018-03-22T17:55:30.903Z,1.73
2018-03-22T17:56:30.907Z,1.70
2018-03-22T17:57:28.986Z,1.73
2018-03-22T17:58:28.743Z,1.77
2018-03-22T17:59:28.595Z,1.68
2018-03-22T18:00:28.619Z,1.73
2018-03-22T18:01:28.729Z,1.72
2018-03-22T18:02:29.046Z,1.72
2018-03-22T18:03:28.956Z,1.66
2018-03-22T18:06:30.140Z,1.63
2018-03-22T18:10:06.989Z,1.77
2018-03-22T18:12:51.460Z,1.84
2018-03-22T18:15:45.866Z,1.80
2018-03-22T18:16:45.822Z,1.76
2018-03-22T18:18:38.906Z,1.84
2018-03-22T18:19:40.811Z,1.79
2018-03-22T18:21:33.366Z,1.69
2018-03-22T18:22:33.284Z,1.59
2018-03-22T18:24:30.850Z,1.58
2018-03-22T18:25:31.197Z,1.62
2018-03-22T18:26:30.750Z,1.66
2018-03-22T18:27:30.677Z,1.68
2018-03-22T18:28:30.504Z,1.63
2018-03-22T18:29:29.919Z,1.65
2018-03-22T18:30:31.078Z,1.66
2018-03-22T18:31:30.587Z,1.68
2018-03-22T18:32:30.617Z,1.69
2018-03-22T18:33:30.306Z,1.58
2018-03-22T18:34:30.663Z,1.65
2018-03-22T18:35:30.378Z,1.65
2018-03-22T18:36:30.258Z,1.60
2018-03-22T18:37:30.211Z,1.66
2018-03-22T18:38:30.189Z,1.69
2018-03-22T18:39:30.123Z,1.62
2018-03-22T18:40:30.081Z,1.66
2018-03-22T18:41:30.200Z,1.68
2018-03-22T18:42:30.047Z,1.70
2018-03-22T18:43:30.121Z,1.76
2018-03-22T18:44:29.845Z,1.66
2018-03-22T18:45:29.945Z,1.70
2018-03-22T18:46:29.769Z,1.80
2018-03-22T18:47:30.185Z,1.80
2018-03-22T18:48:29.649Z,1.77
2018-03-22T18:49:29.694Z,1.79
2018-03-22T18:50:29.582Z,1.83
2018-03-22T18:51:29.412Z,1.80
2018-03-22T18:52:28.065Z,1.80
2018-03-22T18:53:27.513Z,1.81
2018-03-22T18:54:27.318Z,1.80
2018-03-22T18:55:27.393Z,1.79
2018-03-22T18:56:27.249Z,1.86
2018-03-22T18:57:27.312Z,1.77
2018-03-22T18:58:27.332Z,1.83
2018-03-22T18:59:27.393Z,1.77
2018-03-22T19:00:27.109Z,1.80
2018-03-22T19:02:22.785Z,1.87
2018-03-22T19:03:22.782Z,1.88
2018-03-22T19:05:16.057Z,1.79
2018-03-22T19:06:15.718Z,1.83
2018-03-22T19:08:09.976Z,1.80
2018-03-22T19:09:09.578Z,1.83
2018-03-22T19:11:02.351Z,1.87
2018-03-22T19:12:02.286Z,1.91
2018-03-22T19:13:01.689Z,1.86
2018-03-22T19:14:02.163Z,1.91
2018-03-22T19:15:02.127Z,1.86
2018-03-22T19:16:55.118Z,1.86
2018-03-22T19:17:54.659Z,1.79
2018-03-22T19:19:48.138Z,1.72
2018-03-22T19:20:48.117Z,1.84
2018-03-22T19:22:44.010Z,1.79
2018-03-22T19:25:38.468Z,1.80
2018-03-22T19:26:38.479Z,1.79
2018-03-22T19:28:32.810Z,1.84
2018-03-22T19:29:32.894Z,1.83
2018-03-22T19:31:25.932Z,1.72
2018-03-22T19:32:25.691Z,1.73
2018-03-22T19:34:19.519Z,1.70
2018-03-22T19:35:18.713Z,1.70
2018-03-22T19:37:12.549Z,1.79
2018-03-22T19:38:12.282Z,1.73
2018-03-22T19:40:05.158Z,1.76
2018-03-22T19:41:05.122Z,1.79
2018-03-22T19:42:58.646Z,1.84
2018-03-22T19:43:58.619Z,1.80
2018-03-22T19:45:52.043Z,1.77
2018-03-22T19:46:51.449Z,1.81
2018-03-22T19:48:45.090Z,1.79
2018-03-22T19:49:44.959Z,1.68
2018-03-22T19:51:38.171Z,1.79
2018-03-22T19:52:37.999Z,1.72
2018-03-22T19:54:35.042Z,1.69
2018-03-22T19:55:34.466Z,1.70
2018-03-22T19:57:27.862Z,1.73
2018-03-22T19:58:27.943Z,1.68
2018-03-22T20:00:24.448Z,1.76
2018-03-22T20:01:24.401Z,1.62
2018-03-22T20:03:17.367Z,1.62
2018-03-22T20:04:17.304Z,1.65
2018-03-22T20:05:17.275Z,1.66
2018-03-22T20:06:17.051Z,1.59
2018-03-22T20:07:17.234Z,1.59
2018-03-22T20:08:17.132Z,1.58
2018-03-22T20:09:17.105Z,1.55
2018-03-22T20:10:17.228Z,1.59
2018-03-22T20:11:17.224Z,1.63
2018-03-22T20:12:16.869Z,1.60
2018-03-22T20:13:16.736Z,1.63
2018-03-22T20:14:16.870Z,1.68
2018-03-22T20:15:16.757Z,1.66
2018-03-22T20:16:16.674Z,1.63
2018-03-22T20:17:16.789Z,1.59
2018-03-22T20:18:16.875Z,1.62
2018-03-22T20:19:16.597Z,1.59
2018-03-22T20:20:16.717Z,1.59
2018-03-22T20:21:16.758Z,1.58
2018-03-22T20:22:16.605Z,1.52
2018-03-22T20:23:16.312Z,1.55
2018-03-22T20:24:16.362Z,1.68
2018-03-22T20:25:16.712Z,1.69
2018-03-22T20:26:16.162Z,1.70
2018-03-22T20:27:16.314Z,1.54
2018-03-22T20:28:16.187Z,1.58
2018-03-22T20:29:16.273Z,1.59
2018-03-22T20:30:14.348Z,1.63
2018-03-22T20:31:14.390Z,1.55
2018-03-22T20:32:13.956Z,1.66
2018-03-22T20:33:13.781Z,1.54
2018-03-22T20:34:13.745Z,1.51
2018-03-22T20:35:13.700Z,1.66
2018-03-22T20:36:13.673Z,1.60
2018-03-22T20:37:13.611Z,1.59
2018-03-22T20:38:13.574Z,1.66
2018-03-22T20:39:13.605Z,1.58
2018-03-22T20:40:13.502Z,1.51
2018-03-22T20:41:13.459Z,1.58
2018-03-22T20:42:13.465Z,1.58
2018-03-22T20:43:13.370Z,1.60
2018-03-22T20:44:13.332Z,1.63
2018-03-22T20:45:13.340Z,1.65
2018-03-22T20:46:13.209Z,1.44
2018-03-22T20:47:13.184Z,1.44
2018-03-22T20:48:13.139Z,1.55
2018-03-22T20:49:13.234Z,1.51
2018-03-22T20:50:13.123Z,1.47
2018-03-22T20:51:13.008Z,1.59
2018-03-22T20:52:12.968Z,1.58
2018-03-22T20:53:12.949Z,1.63
2018-03-22T20:54:12.932Z,1.60
2018-03-22T20:55:12.847Z,1.58
2018-03-22T20:56:12.803Z,1.47
2018-03-22T20:57:12.762Z,1.51
2018-03-22T20:58:12.740Z,1.55
2018-03-22T20:59:12.726Z,1.51
2018-03-22T21:00:12.654Z,1.47
2018-03-22T21:01:12.590Z,1.54
2018-03-22T21:02:12.563Z,1.47
2018-03-22T21:03:12.482Z,1.51
2018-03-22T21:04:12.450Z,1.47
2018-03-22T21:05:12.422Z,1.59
2018-03-22T21:06:12.392Z,1.55
2018-03-22T21:07:12.334Z,1.54
2018-03-22T21:08:12.290Z,1.52
2018-03-22T21:09:12.236Z,1.58
2018-03-22T21:10:12.204Z,1.60
2018-03-22T21:11:12.199Z,1.51
2018-03-22T21:12:12.099Z,1.58
2018-03-22T21:13:12.185Z,1.41
2018-03-22T21:14:12.034Z,1.59
2018-03-22T21:15:11.974Z,1.52
2018-03-22T21:16:11.913Z,1.48
2018-03-22T21:17:11.894Z,1.58
2018-03-22T21:18:11.833Z,1.55
2018-03-22T21:19:11.814Z,1.60
2018-03-22T21:20:11.819Z,1.62
2018-03-22T21:21:11.729Z,1.48
2018-03-22T21:22:11.730Z,1.54
2018-03-22T21:23:11.624Z,1.50
2018-03-22T21:24:11.679Z,1.60
2018-03-22T21:25:11.536Z,1.54
2018-03-22T21:26:11.505Z,1.58
2018-03-22T21:27:11.470Z,1.52
2018-03-22T21:28:11.429Z,1.58
2018-03-22T21:29:11.384Z,1.58
2018-03-22T21:30:11.321Z,1.59
2018-03-22T21:31:11.279Z,1.55
2018-03-22T21:32:11.222Z,1.58
2018-03-22T21:33:11.237Z,1.50
2018-03-22T21:34:11.204Z,1.63
2018-03-22T21:35:11.099Z,1.63
2018-03-22T21:36:11.068Z,1.60
2018-03-22T21:37:11.116Z,1.66
2018-03-22T21:38:10.968Z,1.65
2018-03-22T21:39:10.934Z,1.54
2018-03-22T21:40:10.876Z,1.60
2018-03-22T21:41:10.838Z,1.48
2018-03-22T21:42:10.812Z,1.48
2018-03-22T21:43:10.770Z,1.48
2018-03-22T21:44:10.776Z,1.54
2018-03-22T21:45:10.726Z,1.62
2018-03-22T21:46:10.616Z,1.58
2018-03-22T21:47:10.588Z,1.55
2018-03-22T21:48:11.401Z,1.50
2018-03-22T21:49:10.485Z,1.66
2018-03-22T21:50:10.447Z,1.68
2018-03-22T21:51:10.415Z,1.63
2018-03-22T21:52:10.355Z,1.58
2018-03-22T21:53:10.372Z,1.55
2018-03-22T21:54:10.283Z,1.65
2018-03-22T21:55:10.236Z,1.65
2018-03-22T21:56:10.223Z,1.65
2018-03-22T21:57:10.172Z,1.62
2018-03-22T21:58:10.099Z,1.60
2018-03-22T21:59:10.078Z,1.65
2018-03-22T22:00:10.215Z,1.52
2018-03-22T22:01:09.957Z,1.63
2018-03-22T22:02:09.976Z,1.63
2018-03-22T22:03:10.408Z,1.50
2018-03-22T22:04:09.956Z,1.65
2018-03-22T22:05:09.797Z,1.50
2018-03-22T22:06:09.812Z,1.65
2018-03-22T22:07:09.734Z,1.50
2018-03-22T22:08:09.671Z,1.58
2018-03-22T22:09:09.636Z,1.63
2018-03-22T22:10:09.663Z,1.58
2018-03-22T22:11:09.682Z,1.48
2018-03-22T22:12:09.506Z,1.50
2018-03-22T22:13:09.448Z,1.47
2018-03-22T22:14:09.494Z,1.42
2018-03-22T22:15:09.358Z,1.44
2018-03-22T22:16:09.357Z,1.51
2018-03-22T22:17:09.292Z,1.48
2018-03-22T22:18:09.252Z,1.59
2018-03-22T22:19:09.229Z,1.51
2018-03-22T22:20:09.174Z,1.52
2018-03-22T22:21:09.236Z,1.52
2018-03-22T22:22:09.160Z,1.52
2018-03-22T22:23:09.117Z,1.52
2018-03-22T22:24:09.123Z,1.58
2018-03-22T22:25:09.020Z,1.50
2018-03-22T22:26:08.924Z,1.62
2018-03-22T22:27:08.958Z,1.54
2018-03-22T22:28:08.920Z,1.52
2018-03-22T22:29:11.207Z,1.54
2018-03-22T22:30:08.728Z,1.62
2018-03-22T22:31:08.752Z,1.58
2018-03-22T22:32:08.894Z,1.50
2018-03-22T22:33:08.936Z,1.52
2018-03-22T22:34:08.719Z,1.51
2018-03-22T22:35:09.414Z,1.42
2018-03-22T22:36:08.647Z,1.44
2018-03-22T22:37:08.551Z,1.51
2018-03-22T22:38:08.565Z,1.45
2018-03-22T22:39:08.636Z,1.44
2018-03-22T22:40:08.399Z,1.59
2018-03-22T22:41:08.426Z,1.48
2018-03-22T22:42:08.418Z,1.50
2018-03-22T22:43:08.431Z,1.51
2018-03-22T22:44:08.286Z,1.48
2018-03-22T22:45:08.508Z,1.58
2018-03-22T22:46:08.280Z,1.51
2018-03-22T22:47:08.200Z,1.58
2018-03-22T22:48:08.261Z,1.48
2018-03-22T22:49:08.094Z,1.47
2018-03-22T22:50:08.052Z,1.54
2018-03-22T22:51:08.082Z,1.44
2018-03-22T22:52:07.928Z,1.58
2018-03-22T22:53:08.120Z,1.58
2018-03-22T22:54:07.920Z,1.52
2018-03-22T22:55:07.845Z,1.48
2018-03-22T22:56:07.602Z,1.48
2018-03-22T22:57:07.728Z,1.52
2018-03-22T22:58:07.730Z,1.44
2018-03-22T22:59:08.443Z,1.48
2018-03-22T23:00:08.095Z,1.51
2018-03-22T23:01:07.620Z,1.51
2018-03-22T23:02:07.430Z,1.54
2018-03-22T23:03:07.482Z,1.40
2018-03-22T23:04:07.918Z,1.59
2018-03-22T23:05:07.513Z,1.50
2018-03-22T23:06:07.789Z,1.66
2018-03-22T23:07:07.303Z,1.60
2018-03-22T23:08:07.200Z,1.58
2018-03-22T23:09:07.250Z,1.63
2018-03-22T23:10:07.375Z,1.54
2018-03-22T23:11:07.269Z,1.54
2018-03-22T23:12:07.183Z,1.59
2018-03-22T23:13:07.136Z,1.63
2018-03-22T23:14:06.996Z,1.63
2018-03-22T23:15:07.134Z,1.58
2018-03-22T23:16:06.847Z,1.50
2018-03-22T23:17:07.090Z,1.37
2018-03-22T23:18:06.924Z,1.48
2018-03-22T23:19:07.859Z,1.52
2018-03-22T23:20:06.681Z,1.52
2018-03-22T23:21:06.734Z,1.54
2018-03-22T23:22:07.018Z,1.51
2018-03-22T23:23:06.834Z,1.54
2018-03-22T23:24:06.698Z,1.44
2018-03-22T23:25:06.720Z,1.55
2018-03-22T23:26:06.548Z,1.59
2018-03-22T23:27:06.622Z,1.51
2018-03-22T23:28:06.394Z,1.62
2018-03-22T23:29:06.439Z,1.55
2018-03-22T23:30:12.428Z,1.54
2018-03-22T23:31:06.279Z,1.51
2018-03-22T23:32:06.991Z,1.36
2018-03-22T23:33:06.351Z,1.47
2018-03-22T23:34:06.105Z,1.48
2018-03-22T23:35:07.575Z,1.55
2018-03-22T23:36:06.043Z,1.48
2018-03-22T23:37:05.816Z,1.50
2018-03-22T23:38:05.896Z,1.54
2018-03-22T23:39:10.919Z,1.47
2018-03-22T23:40:05.955Z,1.47
2018-03-22T23:41:05.793Z,1.42
2018-03-22T23:42:07.648Z,1.45
2018-03-22T23:43:05.796Z,1.37
2018-03-22T23:44:05.614Z,1.47
2018-03-22T23:45:05.742Z,1.47
2018-03-22T23:46:05.744Z,1.45
2018-03-22T23:47:05.448Z,1.42
2018-03-22T23:48:05.409Z,1.51
2018-03-22T23:49:05.377Z,1.48
2018-03-22T23:50:05.631Z,1.41
2018-03-22T23:51:05.917Z,1.59
2018-03-22T23:52:05.351Z,1.66
2018-03-22T23:53:05.447Z,1.55
2018-03-22T23:54:05.268Z,1.54
2018-03-22T23:55:05.139Z,1.62
2018-03-22T23:56:05.063Z,1.50
2018-03-22T23:57:05.042Z,1.51
2018-03-22T23:58:05.188Z,1.51
2018-03-22T23:59:04.918Z,1.60
